Ballarat, Victoria

10:10 PM AEST on May 22, 2015 (GMT +1000)
Bunkers Hill | | Change Station
CLOSE
Current Station
Personal Weather Station
Location: Bunkers Hill, VICTORIA
Elevation: 1388 ft
Nearby Weather Stations

Elev 1388 ft 37.56 °S, 143.76 °E | Updated 37 seconds ago

Overcast
Overcast
46.4 °F
Feels Like 45 °F
N
3.6
Wind Variable Wind from SSE
Gusts 4.9 mph

Today
High -- | Low -- °F
--% Chance of Precip.
Yesterday
High -- | Low -- °F
Precip. -- in
7:22 AM 5:20 PM
Waxing Crescent, 21% visible
Pressure 30.48 in
Visibility 6.2 miles
Clouds Overcast 3100 ft
Windchill 45 °F
Dew Point 39 °F
Humidity 74%
Rainfall 0.00 in
Snow Depth Not available.
UV 0.0 out of 12
Pollen Not available.
Air Quality Not available.
Flu Activity Not available.
METAR YMAV 221200Z AUTO 19007KT 9999 // OVC031 11/06 Q1032

More Conditions Fewer Conditions

Pressure 30.48 in
Visibility 6.2 miles
Clouds Overcast 3100 ft
Windchill 45 °F
Dew Point 39 °F
Humidity 74%
Rainfall 0.00 in
Snow Depth Not available.
UV 0.0 out of 12
Pollen Not available.
Air Quality Not available.
Flu Activity Not available.
METAR YMAV 221200Z AUTO 19007KT 9999 // OVC031 11/06 Q1032

More Conditions Fewer Conditions

10-Day Weather Forecast

Almanac

Astronomy

May. 22, 2015 Rise Set
Actual Time
Civil Twilight
Nautical Twilight
Astronomical Twilight
Moon
Length of Visible Light
Length of Day
Tomorrow will be .
, % of the Moon is Illuminated

Today's Extremes

Country Highs Country Lows

Community

WunderPhotos

Upload Photos

1,823,206 photos uploaded!

WunderBlogs® & News

Nearby

Air Quality

  Air Quality AQ Index Pollutant
Not available.

Snow Depth

Station Depth Elevation

Earthquake Activity

City Distance Mag. Time & Date
Minimum magnitude displayed is 2.5.

Coastal Water Temperatures

Place Temperature

Stations

Nearby Weather Stations

Station Location Temp. Windchill Dew Point Humidity Wind Precip. Elev Updated Type